createdAt,value
2018-08-11T00:02:58.152Z,20.20
2018-08-11T00:07:00.402Z,20.40
2018-08-11T00:11:02.597Z,20.20
2018-08-11T00:15:06.839Z,20.20
2018-08-11T00:19:09.079Z,20.10
2018-08-11T00:23:11.332Z,20.00
2018-08-11T00:27:13.632Z,19.70
2018-08-11T00:31:15.885Z,19.40
2018-08-11T00:35:18.138Z,19.60
2018-08-11T00:39:20.303Z,19.70
2018-08-11T00:43:22.508Z,19.80
2018-08-11T00:47:24.675Z,19.50
2018-08-11T00:51:26.888Z,19.10
2018-08-11T00:55:30.074Z,19.10
2018-08-11T00:59:32.555Z,19.40
2018-08-11T01:03:34.722Z,19.70
2018-08-11T01:07:37.282Z,19.80
2018-08-11T01:11:39.548Z,19.80
2018-08-11T01:15:41.769Z,19.70
2018-08-11T01:19:44.051Z,19.80
2018-08-11T01:23:46.249Z,19.90
2018-08-11T01:27:48.534Z,19.70
2018-08-11T01:31:50.864Z,20.20
2018-08-11T01:35:53.102Z,20.30
2018-08-11T01:39:55.361Z,20.50
2018-08-11T01:43:57.590Z,20.60
2018-08-11T01:47:59.786Z,20.60
2018-08-11T01:52:01.975Z,20.30
2018-08-11T01:56:04.463Z,20.40
2018-08-11T02:00:08.537Z,20.50
2018-08-11T02:04:10.917Z,21.30
2018-08-11T02:08:13.212Z,21.40
2018-08-11T02:12:15.459Z,21.50
2018-08-11T02:16:17.625Z,21.40
2018-08-11T02:20:19.948Z,21.30
2018-08-11T02:24:22.115Z,21.30
2018-08-11T02:28:24.310Z,20.80
2018-08-11T02:32:26.855Z,21.00
2018-08-11T02:36:29.072Z,20.90
2018-08-11T02:40:31.299Z,21.20
2018-08-11T02:44:33.483Z,21.40
2018-08-11T02:48:35.688Z,20.90
2018-08-11T02:52:38.787Z,20.40
2018-08-11T02:56:41.135Z,20.70
2018-08-11T03:00:43.348Z,20.50
2018-08-11T03:04:45.475Z,20.90
2018-08-11T03:08:47.633Z,21.10
2018-08-11T03:12:49.851Z,21.30
2018-08-11T03:16:52.058Z,21.30
2018-08-11T03:20:54.249Z,21.40
2018-08-11T03:24:56.420Z,21.00
2018-08-11T03:28:58.615Z,21.10
2018-08-11T03:33:01.264Z,21.30
2018-08-11T03:37:03.719Z,21.20
2018-08-11T03:41:05.902Z,21.30
2018-08-11T03:45:08.183Z,20.80
2018-08-11T03:49:10.342Z,20.90
2018-08-11T03:53:12.566Z,21.00
2018-08-11T03:57:14.751Z,21.10
2018-08-11T04:01:17.127Z,20.90
2018-08-11T04:05:19.301Z,20.60
2018-08-11T04:09:21.486Z,20.80
2018-08-11T04:13:23.637Z,20.80
2018-08-11T04:17:30.475Z,21.00
2018-08-11T04:21:32.670Z,20.80
2018-08-11T04:25:34.835Z,20.70
2018-08-11T04:29:37.041Z,21.10
2018-08-11T04:33:39.276Z,21.00
2018-08-11T04:37:41.644Z,21.40
2018-08-11T04:41:43.831Z,21.40
2018-08-11T04:45:46.248Z,21.10
2018-08-11T04:49:48.825Z,21.10
2018-08-11T04:53:51.010Z,21.50
2018-08-11T04:57:53.183Z,21.90
2018-08-11T05:01:55.679Z,21.60
2018-08-11T05:05:58.048Z,21.20
2018-08-11T05:10:00.247Z,20.70
2018-08-11T05:14:02.632Z,21.20
2018-08-11T05:18:05.056Z,20.90
2018-08-11T05:22:07.226Z,21.00
2018-08-11T05:26:09.406Z,20.60
2018-08-11T05:30:11.629Z,21.20
2018-08-11T05:34:14.343Z,21.50
2018-08-11T05:38:16.577Z,21.50
2018-08-11T05:42:18.764Z,21.30
2018-08-11T05:46:20.959Z,20.70
2018-08-11T05:50:23.154Z,21.50
2018-08-11T05:54:25.376Z,21.30
2018-08-11T05:58:27.719Z,21.80
2018-08-11T06:02:30.031Z,21.40
2018-08-11T06:06:32.511Z,20.90
2018-08-11T06:10:34.795Z,21.40
2018-08-11T06:14:37.140Z,20.60
2018-08-11T06:18:39.411Z,19.70
2018-08-11T06:22:41.600Z,20.60
2018-08-11T06:26:43.792Z,20.40
2018-08-11T06:30:45.989Z,21.00
2018-08-11T06:34:48.412Z,20.90
2018-08-11T06:38:50.607Z,20.70
2018-08-11T06:42:52.790Z,21.20
2018-08-11T06:46:55.375Z,21.40
2018-08-11T06:50:57.772Z,22.00
2018-08-11T06:54:59.975Z,21.20
2018-08-11T06:59:02.211Z,21.40
2018-08-11T07:03:04.432Z,20.90
2018-08-11T07:07:06.701Z,21.40
2018-08-11T07:11:08.754Z,21.50
2018-08-11T07:15:10.956Z,21.30
2018-08-11T07:19:13.119Z,21.20
2018-08-11T07:23:15.289Z,20.10
2018-08-11T07:27:17.495Z,21.20
2018-08-11T07:31:20.090Z,21.70
2018-08-11T07:35:22.340Z,21.80
2018-08-11T07:39:24.484Z,22.20
2018-08-11T07:43:26.838Z,21.10
2018-08-11T07:47:28.950Z,21.80
2018-08-11T07:51:31.131Z,22.70
2018-08-11T07:55:33.426Z,22.70
2018-08-11T07:59:35.795Z,22.20
2018-08-11T08:03:37.967Z,23.20
2018-08-11T08:07:40.155Z,23.30
2018-08-11T08:11:42.437Z,22.60
2018-08-11T08:15:44.692Z,22.40
2018-08-11T08:19:46.951Z,22.50
2018-08-11T08:23:49.227Z,23.20
2018-08-11T08:27:51.536Z,22.60
2018-08-11T08:31:53.753Z,22.80
2018-08-11T08:35:55.983Z,23.40
2018-08-11T08:39:58.169Z,23.80
2018-08-11T08:44:00.401Z,24.70
2018-08-11T08:48:03.943Z,24.40
2018-08-11T08:52:06.127Z,23.40
2018-08-11T08:56:08.362Z,22.60
2018-08-11T09:00:10.853Z,23.10
2018-08-11T09:04:13.090Z,22.90
2018-08-11T09:08:15.286Z,22.80
2018-08-11T09:12:17.468Z,22.90
2018-08-11T09:16:19.699Z,25.00
2018-08-11T09:20:21.987Z,24.50
2018-08-11T09:24:24.136Z,24.10
2018-08-11T09:28:26.314Z,23.80
2018-08-11T09:32:28.776Z,23.90
2018-08-11T09:36:31.022Z,24.30
2018-08-11T09:40:33.667Z,23.60
2018-08-11T09:44:36.374Z,24.40
2018-08-11T09:48:38.660Z,23.00
2018-08-11T09:52:40.860Z,23.40
2018-08-11T09:56:43.070Z,23.90
2018-08-11T10:00:53.690Z,24.80
2018-08-11T10:04:55.921Z,23.40
2018-08-11T10:08:58.225Z,23.60
2018-08-11T10:13:00.683Z,24.80
2018-08-11T10:17:03.017Z,24.60
2018-08-11T10:21:06.062Z,24.80
2018-08-11T10:25:08.290Z,26.20
2018-08-11T10:29:10.478Z,26.50
2018-08-11T10:33:12.662Z,26.40
2018-08-11T10:37:14.838Z,25.70
2018-08-11T10:41:18.139Z,25.60
2018-08-11T10:45:20.404Z,24.70
2018-08-11T10:49:22.636Z,24.00
2018-08-11T10:53:24.901Z,25.10
2018-08-11T10:57:27.104Z,24.30
2018-08-11T11:01:29.288Z,25.60
2018-08-11T11:05:31.555Z,26.20
2018-08-11T11:09:33.789Z,25.60
2018-08-11T11:13:36.054Z,24.50
2018-08-11T11:17:38.966Z,24.70
2018-08-11T11:21:41.155Z,24.40
2018-08-11T11:25:43.338Z,24.90
2018-08-11T11:29:45.539Z,24.50
2018-08-11T11:33:47.760Z,25.60
2018-08-11T11:37:49.986Z,25.30
2018-08-11T11:41:52.193Z,25.80
2018-08-11T11:45:54.435Z,26.30
2018-08-11T11:49:56.903Z,26.10
2018-08-11T11:53:59.434Z,24.00
2018-08-11T11:58:01.658Z,24.90
2018-08-11T12:02:04.032Z,26.30
2018-08-11T12:06:06.203Z,25.90
2018-08-11T12:10:08.479Z,25.50
2018-08-11T12:14:10.721Z,26.10
2018-08-11T12:18:12.988Z,26.10
2018-08-11T12:22:15.180Z,26.60
2018-08-11T12:26:17.497Z,27.40
2018-08-11T12:30:19.717Z,27.40
2018-08-11T12:34:21.921Z,28.60
2018-08-11T12:38:24.442Z,26.80
2018-08-11T12:42:26.678Z,29.40
2018-08-11T12:46:28.851Z,30.80
2018-08-11T12:50:31.145Z,30.20
2018-08-11T12:54:33.313Z,30.60
2018-08-11T12:58:35.531Z,30.60
2018-08-11T13:02:40.075Z,29.00
2018-08-11T13:06:42.266Z,30.40
2018-08-11T13:10:44.480Z,32.00
2018-08-11T13:14:46.796Z,30.60
2018-08-11T13:18:48.994Z,30.30
2018-08-11T13:22:51.268Z,30.40
2018-08-11T13:26:53.507Z,30.50
2018-08-11T13:30:55.693Z,27.90
2018-08-11T13:34:57.880Z,27.20
2018-08-11T13:39:00.155Z,28.50
2018-08-11T13:43:02.335Z,27.00
2018-08-11T13:47:05.046Z,27.90
2018-08-11T13:51:07.219Z,29.20
2018-08-11T13:55:09.510Z,27.70
2018-08-11T13:59:11.627Z,27.90
2018-08-11T14:03:13.843Z,27.60
2018-08-11T14:07:16.042Z,29.00
2018-08-11T14:11:18.287Z,28.90
2018-08-11T14:15:20.481Z,28.90
2018-08-11T14:19:22.839Z,30.50
2018-08-11T14:23:25.237Z,30.90
2018-08-11T14:27:27.423Z,29.70
2018-08-11T14:31:29.624Z,29.60
2018-08-11T14:35:34.249Z,31.30
2018-08-11T14:39:36.544Z,31.40
2018-08-11T14:43:38.760Z,32.10
2018-08-11T14:47:41.045Z,31.90
2018-08-11T14:51:43.233Z,30.10
2018-08-11T14:55:46.465Z,31.40
2018-08-11T14:59:48.902Z,33.30
2018-08-11T15:03:51.201Z,31.60
2018-08-11T15:07:53.408Z,30.10
2018-08-11T15:11:55.640Z,29.20
2018-08-11T15:15:57.958Z,30.30
2018-08-11T15:20:00.151Z,32.00
2018-08-11T15:24:02.366Z,33.10
2018-08-11T15:28:04.531Z,31.50
2018-08-11T15:32:06.695Z,29.50
2018-08-11T15:36:08.911Z,30.30
2018-08-11T15:40:11.181Z,28.80
2018-08-11T15:44:13.359Z,27.60
2018-08-11T15:48:15.704Z,27.00
2018-08-11T15:52:17.928Z,27.90
2018-08-11T15:56:20.126Z,27.50
2018-08-11T16:00:22.578Z,26.80
2018-08-11T16:04:24.791Z,27.60
2018-08-11T16:08:27.038Z,28.40
2018-08-11T16:12:29.250Z,28.20
2018-08-11T16:16:31.496Z,27.50
2018-08-11T16:20:33.695Z,26.90
2018-08-11T16:24:35.886Z,26.40
2018-08-11T16:28:38.657Z,27.10
2018-08-11T16:32:40.864Z,27.20
2018-08-11T16:36:43.069Z,27.40
2018-08-11T16:40:45.261Z,26.50
2018-08-11T16:44:47.390Z,27.30
2018-08-11T16:48:49.620Z,27.40
2018-08-11T16:52:51.876Z,26.50
2018-08-11T16:56:54.064Z,27.80
2018-08-11T17:00:56.316Z,26.10
2018-08-11T17:04:58.557Z,26.60
2018-08-11T17:09:00.730Z,26.80
2018-08-11T17:13:02.923Z,26.80
2018-08-11T17:17:05.235Z,27.40
2018-08-11T17:21:07.465Z,27.50
2018-08-11T17:25:09.846Z,26.80
2018-08-11T17:29:12.079Z,26.60
2018-08-11T17:33:14.311Z,26.70
2018-08-11T17:37:16.538Z,27.30
2018-08-11T17:41:18.896Z,26.80
2018-08-11T17:45:21.263Z,26.60
2018-08-11T17:49:23.532Z,26.40
2018-08-11T17:53:26.259Z,26.20
2018-08-11T17:57:28.480Z,26.00
2018-08-11T18:01:30.675Z,25.90
2018-08-11T18:05:32.839Z,26.50
2018-08-11T18:09:34.999Z,26.20
2018-08-11T18:13:37.244Z,26.60
2018-08-11T18:17:39.437Z,27.00
2018-08-11T18:21:41.632Z,26.40
2018-08-11T18:25:43.859Z,26.40
2018-08-11T18:29:46.075Z,26.40
2018-08-11T18:33:48.305Z,26.50
2018-08-11T18:37:50.756Z,26.60
2018-08-11T18:41:53.048Z,26.20
2018-08-11T18:45:55.343Z,26.10
2018-08-11T18:49:57.558Z,26.30
2018-08-11T18:53:59.869Z,26.20
2018-08-11T18:58:02.184Z,25.80
2018-08-11T19:02:04.497Z,25.80
2018-08-11T19:06:06.810Z,25.60
2018-08-11T19:10:10.059Z,25.70
2018-08-11T19:14:12.276Z,25.20
2018-08-11T19:18:14.771Z,25.30
2018-08-11T19:22:17.052Z,25.10
2018-08-11T19:26:19.258Z,24.90
2018-08-11T19:30:21.592Z,24.60
2018-08-11T19:34:23.773Z,24.30
2018-08-11T19:38:26.067Z,23.90
2018-08-11T19:42:28.331Z,23.90
2018-08-11T19:46:30.668Z,23.60
2018-08-11T19:50:32.927Z,23.50
2018-08-11T19:54:35.249Z,22.80
2018-08-11T19:58:37.425Z,22.70
2018-08-11T20:02:40.283Z,22.60
2018-08-11T20:06:43.340Z,22.40
2018-08-11T20:10:47.664Z,22.60
2018-08-11T20:14:49.936Z,22.50
2018-08-11T20:18:52.272Z,22.40
2018-08-11T20:22:55.343Z,22.20
2018-08-11T20:26:57.646Z,22.20
2018-08-11T20:30:59.971Z,22.00
2018-08-11T20:35:03.619Z,21.70
2018-08-11T20:39:09.945Z,21.60
2018-08-11T20:43:12.380Z,21.30
2018-08-11T20:47:15.492Z,20.90
2018-08-11T20:51:18.305Z,21.10
2018-08-11T20:55:20.575Z,21.10
2018-08-11T20:59:23.340Z,20.90
2018-08-11T21:03:25.540Z,20.80
2018-08-11T21:07:27.826Z,20.90
2018-08-11T21:11:31.160Z,20.80
2018-08-11T21:15:33.429Z,20.50
2018-08-11T21:19:35.728Z,20.50
2018-08-11T21:23:37.966Z,20.50
2018-08-11T21:27:40.227Z,20.30
2018-08-11T21:31:42.543Z,20.40
2018-08-11T21:35:44.819Z,20.00
2018-08-11T21:39:47.059Z,20.20
2018-08-11T21:43:49.295Z,20.00
2018-08-11T21:47:51.521Z,20.20
2018-08-11T21:51:53.721Z,20.20
2018-08-11T21:55:55.990Z,20.20
2018-08-11T21:59:58.213Z,20.20
2018-08-11T22:04:00.436Z,20.10
2018-08-11T22:08:03.032Z,19.90
2018-08-11T22:12:06.034Z,19.30
2018-08-11T22:16:08.285Z,18.90
2018-08-11T22:20:10.557Z,18.60
2018-08-11T22:24:12.775Z,18.40
2018-08-11T22:28:14.986Z,18.80
2018-08-11T22:32:17.176Z,19.10
2018-08-11T22:36:19.441Z,19.10
2018-08-11T22:40:21.634Z,19.10
2018-08-11T22:44:23.841Z,19.00
2018-08-11T22:48:35.515Z,18.50
2018-08-11T22:52:38.574Z,18.00
2018-08-11T22:56:40.753Z,18.30
2018-08-11T23:00:43.087Z,18.50
2018-08-11T23:04:45.511Z,18.50
2018-08-11T23:08:47.756Z,18.10
2018-08-11T23:12:49.939Z,18.60
2018-08-11T23:16:52.106Z,18.80
2018-08-11T23:20:54.283Z,18.80
2018-08-11T23:24:56.495Z,18.60
2018-08-11T23:28:58.671Z,18.30
2018-08-11T23:33:00.949Z,18.40
2018-08-11T23:37:03.174Z,18.30
2018-08-11T23:41:05.330Z,18.20
2018-08-11T23:45:09.388Z,18.10
2018-08-11T23:49:11.590Z,18.00
2018-08-11T23:53:13.865Z,18.10
2018-08-11T23:57:16.105Z,18.00
